Time;durP1;ratioP1;P1;durP2;ratioP2;P2;SDS_P1;SDS_P2;PMS_P1;PMS_P2;Temp;Humidity;BMP_temperature;BMP_pressure;BME280_temperature;BME280_humidity;BME280_pressure;Samples;Min_cycle;Max_cycle;Signal;HPM_P1;HPM_P2
2023/10/03 00:01:38;;;;;;;12.13;3.00;;;;;;;10.41;100.00;100223.50;5022700;28;20050;-85
2023/10/03 00:04:13;;;;;;;15.48;3.40;;;;;;;10.44;100.00;100228.50;5030405;28;20036;-85
2023/10/03 00:06:39;;;;;;;7.53;2.83;;;;;;;10.42;100.00;100222.53;5028068;28;20178;-85
2023/10/03 00:09:08;;;;;;;10.20;3.55;;;;;;;10.42;100.00;100211.94;5032483;28;20024;-86
2023/10/03 00:11:35;;;;;;;9.88;2.95;;;;;;;10.45;100.00;100213.47;5031765;28;20037;-85
2023/10/03 00:14:03;;;;;;;14.70;5.07;;;;;;;10.49;100.00;100225.44;5017739;28;20452;-85
2023/10/03 00:16:29;;;;;;;10.30;2.72;;;;;;;10.49;100.00;100228.06;5033853;28;20477;-85
2023/10/03 00:18:54;;;;;;;14.20;2.90;;;;;;;10.52;100.00;100230.41;5032768;28;20029;-85
2023/10/03 00:21:20;;;;;;;13.68;3.92;;;;;;;10.55;100.00;100235.41;5047453;28;20027;-85
2023/10/03 00:23:46;;;;;;;13.30;2.47;;;;;;;10.59;100.00;100241.22;5021021;28;20033;-86
2023/10/03 00:26:15;;;;;;;9.00;2.60;;;;;;;10.61;100.00;100229.53;5013595;28;20044;-85
2023/10/03 00:28:44;;;;;;;9.50;2.72;;;;;;;10.69;100.00;100241.97;5035036;28;20033;-86
2023/10/03 00:31:13;;;;;;;12.55;2.85;;;;;;;10.71;100.00;100242.69;5000189;28;21376;-91
2023/10/03 00:33:41;;;;;;;11.82;2.88;;;;;;;10.78;100.00;100234.97;5019617;28;20033;-90
2023/10/03 00:36:21;;;;;;;11.18;2.60;;;;;;;10.83;100.00;100232.69;5027321;28;20036;-86
2023/10/03 00:38:47;;;;;;;9.35;3.05;;;;;;;10.82;100.00;100240.78;4999797;28;20100;-86
2023/10/03 00:41:13;;;;;;;12.82;2.80;;;;;;;10.82;100.00;100235.50;5012421;28;20060;-86
2023/10/03 00:44:01;;;;;;;14.95;2.85;;;;;;;10.86;100.00;100245.59;5010892;28;20032;-86
2023/10/03 00:46:29;;;;;;;7.75;2.05;;;;;;;10.83;100.00;100237.97;5007058;28;20179;-85
2023/10/03 00:49:05;;;;;;;10.02;2.83;;;;;;;10.87;100.00;100244.66;5001915;28;20682;-85
2023/10/03 00:51:31;;;;;;;9.30;2.67;;;;;;;10.84;100.00;100237.03;5019041;28;20052;-85
2023/10/03 00:54:00;;;;;;;5.68;2.25;;;;;;;10.89;100.00;100234.72;5018650;28;20028;-86
2023/10/03 00:56:26;;;;;;;6.93;2.20;;;;;;;10.88;100.00;100242.81;5028239;28;20033;-86
2023/10/03 00:58:52;;;;;;;6.38;2.20;;;;;;;10.86;100.00;100240.31;5011588;28;20496;-86
2023/10/03 01:01:18;;;;;;;13.52;2.63;;;;;;;10.86;100.00;100247.44;5014070;28;20037;-85
2023/10/03 01:03:47;;;;;;;11.90;2.83;;;;;;;10.87;100.00;100249.94;5010713;28;20033;-85
2023/10/03 01:06:15;;;;;;;10.80;2.92;;;;;;;10.84;100.00;100242.31;5008613;28;20046;-85
2023/10/03 01:08:47;;;;;;;8.43;2.17;;;;;;;10.87;100.00;100243.81;5033660;28;20048;-86
2023/10/03 01:11:15;;;;;;;9.50;2.55;;;;;;;10.87;100.00;100249.09;5012701;28;20075;-85
2023/10/03 01:13:49;;;;;;;7.97;2.03;;;;;;;10.90;100.00;100256.72;5009962;28;20033;-85
2023/10/03 01:16:29;;;;;;;7.95;2.03;;;;;;;10.87;100.00;100243.81;5028676;28;20639;-85
2023/10/03 01:19:11;;;;;;;7.75;2.30;;;;;;;10.89;100.00;100255.06;4996641;28;20044;-86
2023/10/03 01:21:37;;;;;;;14.77;2.65;;;;;;;10.92;100.00;100260.88;5025199;28;20528;-85
2023/10/03 01:24:07;;;;;;;12.30;3.03;;;;;;;10.94;100.00;100260.72;5021928;28;20060;-85
2023/10/03 01:26:33;;;;;;;7.45;2.05;;;;;;;10.95;100.00;100257.09;5013096;28;20439;-86
2023/10/03 01:28:59;;;;;;;6.63;2.10;;;;;;;10.96;100.00;100264.06;5010631;28;20033;-86
2023/10/03 01:31:27;;;;;;;9.90;1.88;;;;;;;11.00;100.00;100262.78;5042890;28;20363;-85
2023/10/03 01:33:52;;;;;;;9.23;2.15;;;;;;;11.02;100.00;100266.09;5040953;28;20557;-85
2023/10/03 01:36:18;;;;;;;8.07;1.83;;;;;;;11.06;100.00;100269.25;5018913;28;20040;-85
2023/10/03 01:38:45;;;;;;;13.88;1.83;;;;;;;11.08;100.00;100262.03;5046372;28;20417;-85
2023/10/03 01:41:13;;;;;;;7.15;1.80;;;;;;;11.08;100.00;100256.72;5033328;28;20036;-85
2023/10/03 01:43:43;;;;;;;8.68;1.77;;;;;;;11.11;100.00;100250.28;5049345;28;20090;-85
2023/10/03 01:46:17;;;;;;;6.68;1.77;;;;;;;11.19;100.00;100265.41;5047501;28;20421;-85
2023/10/03 01:48:43;;;;;;;10.85;1.90;;;;;;;11.17;100.00;100265.56;5017216;28;20044;-85
2023/10/03 01:51:09;;;;;;;6.95;1.70;;;;;;;11.17;100.00;100262.91;5034794;28;20029;-86
2023/10/03 01:53:40;;;;;;;8.52;1.58;;;;;;;11.22;100.00;100265.94;5043326;28;20028;-85
2023/10/03 01:56:06;;;;;;;13.27;1.90;;;;;;;11.23;100.00;100267.59;5044137;28;20068;-86
2023/10/03 01:58:34;;;;;;;9.80;1.50;;;;;;;11.24;100.00;100261.31;5041990;28;20056;-85
2023/10/03 02:01:00;;;;;;;6.43;1.92;;;;;;;11.27;100.00;100268.13;5016171;28;20040;-85
2023/10/03 02:03:28;;;;;;;8.50;2.00;;;;;;;11.29;100.00;100263.50;5017096;28;20044;-85
2023/10/03 02:05:55;;;;;;;9.07;2.25;;;;;;;11.29;100.00;100269.63;5016677;28;20051;-85
2023/10/03 02:08:24;;;;;;;8.55;1.83;;;;;;;11.29;100.00;100261.69;5013649;28;20033;-85
2023/10/03 02:10:50;;;;;;;11.90;2.08;;;;;;;11.29;100.00;100256.38;5025565;28;20044;-85
2023/10/03 02:13:18;;;;;;;11.35;1.50;;;;;;;11.28;100.00;100267.13;5030800;28;20558;-85
2023/10/03 02:15:45;;;;;;;8.90;2.33;;;;;;;11.29;100.00;100266.97;5036083;28;20036;-85
2023/10/03 02:18:13;;;;;;;6.70;1.83;;;;;;;11.29;100.00;100269.63;5031932;28;20028;-85
2023/10/03 02:20:53;;;;;;;10.65;1.60;;;;;;;11.31;100.00;100269.47;5044878;28;20108;-85
2023/10/03 02:23:25;;;;;;;8.50;1.63;;;;;;;11.30;100.00;100265.16;5048035;28;20594;-86
2023/10/03 02:25:56;;;;;;;5.97;1.58;;;;;;;11.35;100.00;100270.00;5029760;28;20555;-86
2023/10/03 02:28:24;;;;;;;6.22;1.20;;;;;;;11.33;100.00;100256.06;5047166;28;20473;-85
2023/10/03 02:30:51;;;;;;;5.97;1.85;;;;;;;11.32;100.00;100255.28;5033456;28;20058;-86
2023/10/03 02:33:17;;;;;;;3.47;1.30;;;;;;;11.33;100.00;100251.63;5064435;28;20032;-85
2023/10/03 02:35:48;;;;;;;7.53;2.00;;;;;;;11.36;100.00;100259.25;5042640;28;20028;-85
2023/10/03 02:38:24;;;;;;;6.60;1.65;;;;;;;11.33;100.00;100256.06;5047543;28;20024;-85
2023/10/03 02:40:54;;;;;;;11.18;1.88;;;;;;;11.34;100.00;100255.91;5064291;28;20039;-85
2023/10/03 02:43:20;;;;;;;12.52;1.52;;;;;;;11.31;100.00;100258.06;5067372;28;20032;-85
2023/10/03 02:45:47;;;;;;;14.00;1.83;;;;;;;11.28;100.00;100267.13;5048278;28;20104;-85
2023/10/03 02:48:16;;;;;;;9.65;1.48;;;;;;;11.26;100.00;100272.56;5045659;28;20028;-86
2023/10/03 02:50:46;;;;;;;14.75;1.88;;;;;;;11.25;100.00;100262.97;5042671;28;20044;-85
2023/10/03 02:53:19;;;;;;;9.68;1.50;;;;;;;11.24;100.00;100263.13;5038404;28;20475;-85
2023/10/03 02:55:46;;;;;;;10.02;1.75;;;;;;;11.16;100.00;100258.59;5052561;28;20032;-85
2023/10/03 02:58:13;;;;;;;7.38;1.35;;;;;;;11.11;100.00;100258.22;5065680;28;20084;-85
2023/10/03 03:00:41;;;;;;;11.82;1.98;;;;;;;11.07;100.00;100257.69;5048517;28;20484;-85
2023/10/03 03:03:11;;;;;;;8.93;1.50;;;;;;;11.06;100.00;100263.13;5053229;28;20468;-85
2023/10/03 03:05:38;;;;;;;8.60;1.60;;;;;;;11.02;100.00;100268.72;5046595;28;20043;-85
2023/10/03 03:10:57;;;;;;;6.45;1.33;;;;;;;10.98;100.00;100263.91;5051837;28;20028;-85
2023/10/03 03:13:35;;;;;;;9.50;1.52;;;;;;;10.97;100.00;100262.25;5033322;28;20178;-85
2023/10/03 03:16:05;;;;;;;8.02;1.65;;;;;;;10.89;100.00;100269.09;5048202;28;20511;-86
2023/10/03 03:18:47;;;;;;;9.88;1.45;;;;;;;10.86;100.00;100264.13;5065058;28;20119;-85
2023/10/03 03:21:15;;;;;;;10.68;1.50;;;;;;;10.82;100.00;100264.56;5061537;28;20032;-85
2023/10/03 03:24:00;;;;;;;8.38;1.60;;;;;;;10.78;100.00;100272.00;5028050;28;20465;-85
2023/10/03 03:26:36;;;;;;;8.57;1.60;;;;;;;10.67;100.00;100273.03;5040776;28;20104;-85
2023/10/03 03:29:16;;;;;;;9.57;2.15;;;;;;;10.64;100.00;100268.88;5036463;28;20039;-85
2023/10/03 03:31:42;;;;;;;8.90;1.27;;;;;;;10.58;100.00;100279.19;5024637;28;20025;-85
2023/10/03 03:34:09;;;;;;;7.25;0.98;;;;;;;10.61;100.00;100276.25;5039381;28;20047;-85
2023/10/03 03:36:35;;;;;;;8.02;1.63;;;;;;;10.57;100.00;100286.31;5039620;28;20052;-85
2023/10/03 03:39:05;;;;;;;5.55;1.55;;;;;;;10.54;100.00;100283.97;5041246;28;20517;-85
2023/10/03 03:41:31;;;;;;;12.98;1.50;;;;;;;10.49;100.00;100281.78;5041547;28;20036;-85
2023/10/03 03:43:59;;;;;;;8.75;1.20;;;;;;;10.41;100.00;100276.34;5044121;28;20037;-85
2023/10/03 03:46:26;;;;;;;13.23;1.42;;;;;;;10.40;100.00;100283.44;5041178;28;20033;-85
2023/10/03 03:48:52;;;;;;;9.75;1.23;;;;;;;10.38;100.00;100284.56;5041613;28;20061;-85
2023/10/03 03:51:18;;;;;;;10.55;1.25;;;;;;;10.37;100.00;100290.81;5044049;28;20116;-85
2023/10/03 03:53:44;;;;;;;8.35;0.98;;;;;;;10.33;100.00;100287.66;5028574;28;20053;-85
2023/10/03 03:56:12;;;;;;;9.27;1.40;;;;;;;10.31;100.00;100292.25;5029772;28;20115;-85
2023/10/03 03:58:44;;;;;;;14.07;1.80;;;;;;;10.27;100.00;100296.97;5024471;28;20778;-85
2023/10/03 04:01:19;;;;;;;8.30;1.17;;;;;;;10.26;100.00;100297.97;5031142;28;20037;-85
2023/10/03 04:03:46;;;;;;;8.13;2.03;;;;;;;10.27;100.00;100302.25;5027336;28;20798;-85
2023/10/03 04:06:12;;;;;;;12.13;1.30;;;;;;;10.27;100.00;100307.56;5047647;28;20523;-85
2023/10/03 04:08:38;;;;;;;6.95;1.17;;;;;;;10.28;100.00;100306.59;5027479;28;20033;-84
2023/10/03 04:11:08;;;;;;;7.60;1.42;;;;;;;10.34;100.00;100314.88;5015171;28;20072;-85
2023/10/03 04:13:56;;;;;;;9.15;1.08;;;;;;;10.31;100.00;100310.75;5014027;28;20876;-85
2023/10/03 04:16:27;;;;;;;8.13;1.08;;;;;;;10.27;100.00;100320.75;5011809;28;20060;-85
2023/10/03 04:18:53;;;;;;;8.45;1.80;;;;;;;10.26;100.00;100318.25;5014538;28;20060;-85
2023/10/03 04:21:26;;;;;;;12.43;2.35;;;;;;;10.24;100.00;100317.59;5017213;28;20112;-85
2023/10/03 04:23:53;;;;;;;5.50;1.00;;;;;;;10.25;100.00;100306.88;5026666;28;20564;-85
2023/10/03 04:26:19;;;;;;;10.65;1.17;;;;;;;10.16;100.00;100310.41;5013032;28;20048;-85
2023/10/03 04:28:45;;;;;;;9.52;1.25;;;;;;;10.12;100.00;100314.28;5028724;28;20103;-85
2023/10/03 04:31:10;;;;;;;8.93;1.35;;;;;;;10.07;100.00;100308.59;5020844;28;20042;-85
2023/10/03 04:33:36;;;;;;;9.75;1.33;;;;;;;10.05;100.00;100312.22;5025427;28;20114;-85
2023/10/03 04:36:04;;;;;;;5.28;1.27;;;;;;;9.99;100.00;100320.72;5019752;28;20032;-85
2023/10/03 04:38:33;;;;;;;6.28;1.13;;;;;;;9.97;100.00;100320.03;5003597;28;20505;-85
2023/10/03 04:40:59;;;;;;;6.63;1.52;;;;;;;9.89;100.00;100326.03;5007713;28;20036;-85
2023/10/03 04:43:27;;;;;;;4.63;1.13;;;;;;;9.86;100.00;100328.16;4993890;28;20060;-85
2023/10/03 04:45:53;;;;;;;8.35;1.08;;;;;;;9.82;100.00;100332.88;5035004;28;20037;-85
2023/10/03 04:48:18;;;;;;;5.78;0.95;;;;;;;9.78;100.00;100334.09;5009457;28;20029;-84
2023/10/03 04:50:44;;;;;;;8.32;1.00;;;;;;;9.72;100.00;100324.97;5009867;28;20045;-85
2023/10/03 04:53:14;;;;;;;6.75;0.70;;;;;;;9.68;100.00;100327.03;5017567;28;20511;-85
2023/10/03 04:55:44;;;;;;;13.98;2.58;;;;;;;9.66;100.00;100336.94;5000356;28;20061;-85
2023/10/03 04:58:10;;;;;;;6.18;1.00;;;;;;;9.62;100.00;100332.88;5031613;28;20760;-85
2023/10/03 05:00:36;;;;;;;6.38;0.95;;;;;;;9.62;100.00;100337.34;5013420;28;20524;-85
2023/10/03 05:03:04;;;;;;;10.27;1.10;;;;;;;9.58;100.00;100336.78;5014197;28;20033;-85
2023/10/03 05:05:32;;;;;;;7.25;1.50;;;;;;;9.49;100.00;100333.16;4997485;28;20128;-85
2023/10/03 05:07:58;;;;;;;7.70;1.17;;;;;;;9.46;100.00;100330.00;5022732;28;20051;-85
2023/10/03 05:10:27;;;;;;;6.90;1.75;;;;;;;9.47;100.00;100329.84;5025617;28;20044;-85
2023/10/03 05:12:52;;;;;;;13.88;1.40;;;;;;;9.38;100.00;100330.69;5013094;28;20052;-85
2023/10/03 05:15:19;;;;;;;7.25;1.65;;;;;;;9.41;100.00;100333.06;5025374;28;20075;-86
2023/10/03 05:17:47;;;;;;;9.60;1.45;;;;;;;9.36;100.00;100338.75;5026630;28;20034;-85
2023/10/03 05:20:14;;;;;;;7.22;0.82;;;;;;;9.33;100.00;100339.03;5032630;28;20052;-83
2023/10/03 05:22:41;;;;;;;10.07;1.27;;;;;;;9.28;100.00;100336.81;5028971;28;20033;-85
2023/10/03 05:25:11;;;;;;;8.38;1.17;;;;;;;9.27;100.00;100335.13;4986266;28;20500;-85
2023/10/03 05:27:41;;;;;;;8.70;2.42;;;;;;;9.27;100.00;100344.88;5006804;28;20054;-84
2023/10/03 05:30:08;;;;;;;11.48;1.30;;;;;;;9.26;100.00;100345.81;5043031;28;20131;-85
2023/10/03 05:32:38;;;;;;;13.30;1.33;;;;;;;9.26;100.00;100345.81;5033965;28;20037;-85
2023/10/03 05:35:08;;;;;;;4.47;1.10;;;;;;;9.28;100.00;100346.50;5037241;28;20501;-85
2023/10/03 05:37:35;;;;;;;10.68;1.42;;;;;;;9.19;100.00;100348.16;5007712;28;20051;-85
2023/10/03 05:40:11;;;;;;;12.73;1.80;;;;;;;9.17;100.00;100347.50;5032563;28;20037;-85
2023/10/03 05:42:40;;;;;;;;;;;;;;;9.13;100.00;100349.56;5064668;28;20028;-85
2023/10/03 05:45:08;;;;;;;12.30;2.67;;;;;;;9.13;100.00;100360.09;5047158;28;19938;-85
2023/10/03 05:47:34;;;;;;;4.57;0.90;;;;;;;9.14;100.00;100353.84;5038846;28;20120;-84
2023/10/03 05:50:00;;;;;;;7.43;1.00;;;;;;;9.19;100.00;100361.34;5050705;28;20131;-84
2023/10/03 05:52:26;;;;;;;11.38;2.10;;;;;;;9.19;100.00;100361.34;5038525;28;20040;-85
2023/10/03 05:54:52;;;;;;;6.97;1.30;;;;;;;9.23;100.00;100369.81;5044869;28;20460;-85
2023/10/03 05:57:17;;;;;;;8.15;1.33;;;;;;;9.23;100.00;100375.94;5047158;28;20039;-85
2023/10/03 05:59:43;;;;;;;5.20;1.17;;;;;;;9.27;100.00;100371.25;5037573;28;20040;-85
2023/10/03 06:02:09;;;;;;;9.80;1.35;;;;;;;9.29;100.00;100372.75;5036904;28;20032;-84
2023/10/03 06:04:36;;;;;;;11.32;1.17;;;;;;;9.33;100.00;100370.69;5054702;28;20380;-85
2023/10/03 06:07:06;;;;;;;8.32;1.05;;;;;;;9.36;100.00;100369.56;5048743;28;20111;-85
2023/10/03 06:09:33;;;;;;;11.88;1.52;;;;;;;9.41;100.00;100373.44;5042576;28;20119;-85
2023/10/03 06:11:59;;;;;;;8.70;1.23;;;;;;;9.49;100.00;100383.28;5052053;28;20090;-85
2023/10/03 06:14:25;;;;;;;5.20;1.30;;;;;;;9.50;100.00;100389.41;5052766;28;22986;-85
2023/10/03 06:16:51;;;;;;;11.80;1.30;;;;;;;9.54;100.00;100401.34;5061244;28;20123;-85
2023/10/03 06:19:18;;;;;;;14.90;1.25;;;;;;;9.57;100.00;100397.63;5037831;28;20488;-85
2023/10/03 06:21:46;;;;;;;11.57;1.65;;;;;;;9.63;100.00;100397.06;5035376;28;20439;-86
2023/10/03 06:24:13;;;;;;;16.90;1.45;;;;;;;9.67;100.00;100401.06;5037349;28;20028;-85
2023/10/03 06:26:42;;;;;;;15.00;1.80;;;;;;;9.72;100.00;100408.56;5059740;28;20105;-85
2023/10/03 06:29:07;;;;;;;14.88;1.90;;;;;;;9.75;100.00;100410.94;5047662;28;20044;-85
2023/10/03 06:31:33;;;;;;;12.93;1.80;;;;;;;9.79;100.00;100414.97;5055910;28;20028;-85
2023/10/03 06:34:01;;;;;;;8.48;1.15;;;;;;;9.80;100.00;100411.34;5064387;28;20036;-86
2023/10/03 06:36:26;;;;;;;9.70;1.30;;;;;;;9.84;100.00;100411.91;5062361;28;20489;-85
2023/10/03 06:38:52;;;;;;;14.77;1.50;;;;;;;9.83;100.00;100408.44;5039272;28;20066;-85
2023/10/03 06:41:22;;;;;;;19.48;2.72;;;;;;;9.87;100.00;100406.34;5033699;28;20021;-85
2023/10/03 06:43:49;;;;;;;13.98;1.58;;;;;;;9.88;100.00;100413.28;5051955;28;20078;-85
2023/10/03 06:46:15;;;;;;;17.70;1.83;;;;;;;9.88;100.00;100419.41;5054289;28;20034;-85
2023/10/03 06:48:52;;;;;;;9.75;1.13;;;;;;;9.95;100.00;100418.84;5059540;28;20032;-85
2023/10/03 06:51:18;;;;;;;13.48;0.95;;;;;;;9.94;100.00;100425.94;5054400;28;20036;-85
2023/10/03 06:53:47;;;;;;;11.45;1.73;;;;;;;9.96;100.00;100433.72;5047936;28;20040;-85
2023/10/03 06:56:13;;;;;;;11.35;2.13;;;;;;;9.99;100.00;100431.63;5062745;28;20055;-88
2023/10/03 06:58:39;;;;;;;11.07;1.65;;;;;;;10.01;100.00;100436.78;5024491;28;20412;-89
2023/10/03 07:01:04;;;;;;;12.85;1.85;;;;;;;10.03;100.00;100446.22;5059498;28;20036;-86
2023/10/03 07:03:30;;;;;;;9.38;1.20;;;;;;;10.05;100.00;100444.28;5055838;28;20119;-86
2023/10/03 07:05:57;;;;;;;10.48;1.58;;;;;;;10.12;100.00;100446.34;5063246;28;20037;-85
2023/10/03 07:08:25;;;;;;;10.50;1.50;;;;;;;10.15;100.00;100451.34;5031438;28;20035;-86
2023/10/03 07:10:50;;;;;;;7.70;1.23;;;;;;;10.17;100.00;100460.81;5048488;28;20579;-86
2023/10/03 07:13:17;;;;;;;8.80;1.52;;;;;;;10.23;100.00;100466.47;5042250;28;20029;-85
2023/10/03 07:15:44;;;;;;;15.10;1.92;;;;;;;10.25;100.00;100467.19;5064438;28;20037;-85
2023/10/03 07:18:11;;;;;;;10.23;1.70;;;;;;;10.29;100.00;100474.69;5049910;28;20025;-85
2023/10/03 07:20:38;;;;;;;10.73;1.90;;;;;;;10.29;100.00;100474.69;5038752;28;21919;-85
2023/10/03 07:23:04;;;;;;;11.65;1.55;;;;;;;10.33;100.00;100482.31;5070729;28;20624;-86
2023/10/03 07:25:33;;;;;;;16.38;1.52;;;;;;;10.36;100.00;100480.25;5055715;28;20049;-85
2023/10/03 07:27:59;;;;;;;12.98;1.55;;;;;;;10.41;100.00;100491.22;5061796;28;20444;-86
2023/10/03 07:30:25;;;;;;;9.05;1.45;;;;;;;10.45;100.00;100491.75;5060362;28;20027;-86
2023/10/03 07:32:51;;;;;;;21.42;1.95;;;;;;;10.49;100.00;100489.69;5043291;28;20040;-86
2023/10/03 07:35:19;;;;;;;12.98;1.65;;;;;;;10.57;100.00;100499.56;5061086;28;20036;-85
2023/10/03 07:37:45;;;;;;;12.95;1.55;;;;;;;10.59;100.00;100497.59;5064232;28;20108;-86
2023/10/03 07:40:11;;;;;;;14.35;1.65;;;;;;;10.61;100.00;100509.69;5047507;28;20032;-85
2023/10/03 07:42:40;;;;;;;12.18;1.75;;;;;;;10.65;100.00;100508.41;5035271;28;20071;-85
2023/10/03 07:45:07;;;;;;;11.73;1.75;;;;;;;10.73;100.00;100520.09;5045080;28;20043;-86
2023/10/03 07:47:33;;;;;;;16.20;2.10;;;;;;;10.70;100.00;100526.53;5065985;28;20126;-85
2023/10/03 07:50:03;;;;;;;9.13;1.80;;;;;;;10.80;100.00;100534.41;5063133;28;20041;-86
2023/10/03 07:52:29;;;;;;;8.10;1.48;;;;;;;10.77;100.00;100530.25;5060560;28;20111;-86
2023/10/03 07:54:56;;;;;;;13.70;2.05;;;;;;;10.81;100.00;100528.16;5046974;28;20115;-86
2023/10/03 07:57:23;;;;;;;15.95;1.73;;;;;;;10.79;100.00;100538.88;5058331;28;20448;-87
2023/10/03 07:59:52;;;;;;;7.72;1.48;;;;;;;10.83;100.00;100544.69;5049898;28;20040;-86
2023/10/03 08:02:18;;;;;;;12.32;1.77;;;;;;;10.88;100.00;100550.38;5059802;28;20029;-86
2023/10/03 08:04:46;;;;;;;11.60;1.60;;;;;;;10.95;100.00;100548.00;5047496;28;20051;-87
2023/10/03 08:07:21;;;;;;;15.80;2.17;;;;;;;11.01;100.00;100555.38;5063042;28;20030;-86
2023/10/03 08:09:48;;;;;;;12.07;1.50;;;;;;;11.13;100.00;100563.13;5054991;28;20402;-86
2023/10/03 08:12:22;;;;;;;15.68;2.28;;;;;;;11.23;100.00;100573.66;5052161;28;20469;-86
2023/10/03 08:14:51;;;;;;;11.93;2.15;;;;;;;11.35;100.00;100569.88;5049431;28;20036;-85
2023/10/03 08:17:25;;;;;;;10.85;2.55;;;;;;;11.47;100.00;100567.84;5032456;28;20443;-85
2023/10/03 08:19:52;;;;;;;12.63;2.22;;;;;;;11.53;100.00;100574.38;5046219;28;20114;-86
2023/10/03 08:22:20;;;;;;;13.60;2.20;;;;;;;11.59;100.00;100576.44;5064513;28;20032;-86
2023/10/03 08:24:47;;;;;;;11.55;2.35;;;;;;;11.66;100.00;100574.00;5064085;28;20059;-86
2023/10/03 08:27:21;;;;;;;11.20;1.92;;;;;;;11.78;100.00;100582.59;5065090;28;20485;-86
2023/10/03 08:29:51;;;;;;;9.10;1.75;;;;;;;11.89;100.00;100585.03;5049721;28;20044;-86
2023/10/03 08:32:18;;;;;;;13.27;2.95;;;;;;;11.97;100.00;100578.97;5030880;28;20379;-85
2023/10/03 08:34:44;;;;;;;10.55;1.90;;;;;;;12.00;100.00;100583.13;5032528;28;20048;-86
2023/10/03 08:37:18;;;;;;;13.02;1.88;;;;;;;12.06;100.00;100589.63;5057574;28;20105;-86
2023/10/03 08:39:48;;;;;;;14.63;2.53;;;;;;;12.07;100.00;100600.09;5034547;28;20082;-85
2023/10/03 08:42:35;;;;;;;13.07;2.17;;;;;;;12.14;100.00;100605.66;5062190;28;20488;-86
2023/10/03 08:45:22;;;;;;;13.20;1.63;;;;;;;12.20;100.00;100609.53;5059778;28;20024;-85
2023/10/03 08:47:54;;;;;;;11.20;1.80;;;;;;;12.30;100.00;100606.78;5030980;28;20119;-86
2023/10/03 08:50:34;;;;;;;13.75;2.47;;;;;;;12.36;100.00;100614.16;5060866;28;20040;-86
2023/10/03 08:53:15;;;;;;;13.65;2.08;;;;;;;12.40;100.00;100613.72;5046870;28;20127;-86
2023/10/03 08:55:45;;;;;;;14.65;1.77;;;;;;;12.44;100.00;100621.34;5033121;28;20370;-86
2023/10/03 08:58:16;;;;;;;11.48;1.77;;;;;;;12.50;100.00;100607.47;5079732;28;20025;-85
2023/10/03 09:00:58;;;;;;;20.00;2.00;;;;;;;12.56;100.00;100612.16;5050690;28;20078;-86
2023/10/03 09:03:51;;;;;;;13.60;1.95;;;;;;;12.60;100.00;100613.53;5057820;28;20033;-86
2023/10/03 09:06:23;;;;;;;12.05;2.00;;;;;;;12.66;100.00;100620.03;5057882;28;20040;-86
2023/10/03 09:09:09;;;;;;;10.20;1.88;;;;;;;12.77;100.00;100632.22;5063037;28;20385;-85
2023/10/03 09:11:38;;;;;;;14.57;1.73;;;;;;;12.79;100.00;100627.56;5062748;28;20036;-85
2023/10/03 09:14:09;;;;;;;12.65;1.92;;;;;;;12.87;100.00;100632.94;5022143;28;20032;-86
2023/10/03 09:16:39;;;;;;;8.57;1.60;;;;;;;12.91;100.00;100646.75;5041229;28;20040;-86
2023/10/03 09:19:05;;;;;;;10.07;1.83;;;;;;;12.95;100.00;100653.41;5054988;28;20480;-86
2023/10/03 09:21:33;;;;;;;14.48;2.15;;;;;;;13.01;100.00;100644.00;5049924;28;20124;-86
2023/10/03 09:24:17;;;;;;;6.93;1.35;;;;;;;13.07;100.00;100656.66;5065055;28;20040;-87
2023/10/03 09:26:51;;;;;;;10.80;2.08;;;;;;;13.15;100.00;100661.16;5063290;28;20049;-86
2023/10/03 09:29:19;;;;;;;10.75;2.05;;;;;;;13.15;100.00;100647.91;5047792;28;20396;-86
2023/10/03 09:31:48;;;;;;;17.05;3.15;;;;;;;13.20;100.00;100663.34;5049092;28;20044;-85
2023/10/03 09:34:16;;;;;;;11.27;2.08;;;;;;;13.19;100.00;100654.56;5050432;28;20072;-86
2023/10/03 09:36:42;;;;;;;11.77;1.98;;;;;;;13.17;100.00;100663.66;5030628;28;20453;-86
2023/10/03 09:39:08;;;;;;;15.30;1.95;;;;;;;13.24;100.00;100670.00;5041511;28;20036;-86
2023/10/03 09:41:38;;;;;;;15.60;2.10;;;;;;;13.35;100.00;100677.72;5031579;28;20090;-87
2023/10/03 09:44:06;;;;;;;12.30;2.15;;;;;;;13.44;100.00;100689.19;5059836;28;20035;-86
2023/10/03 09:46:40;;;;;;;16.08;2.20;;;;;;;13.49;100.00;100684.25;5065214;28;20036;-85
2023/10/03 09:49:09;;;;;;;11.48;1.25;;;;;;;13.48;100.00;100684.41;5060337;28;20036;-87
2023/10/03 09:51:36;;;;;;;12.75;1.92;;;;;;;13.49;100.00;100692.22;5062932;28;20048;-86
2023/10/03 09:54:10;;;;;;;12.82;1.90;;;;;;;13.62;100.00;100690.97;5053779;28;20066;-86
2023/10/03 09:56:40;;;;;;;19.52;2.28;;;;;;;13.72;100.00;100696.19;5047453;28;20099;-86
2023/10/03 09:59:17;;;;;;;14.13;2.33;;;;;;;13.82;100.00;100712.00;5061287;28;20489;-85
2023/10/03 10:01:45;;;;;;;10.10;1.63;;;;;;;13.89;100.00;100707.72;5048954;28;20058;-86
2023/10/03 10:04:14;;;;;;;12.43;1.70;;;;;;;13.96;100.00;100708.75;5044074;28;20039;-86
2023/10/03 10:06:50;;;;;;;13.40;1.88;;;;;;;14.05;100.00;100706.94;5052702;28;20121;-85
2023/10/03 10:09:29;;;;;;;15.07;3.05;;;;;;;14.13;100.00;100711.44;5062730;28;20036;-86
2023/10/03 10:12:15;;;;;;;16.08;2.00;;;;;;;14.19;100.00;100715.31;5043824;28;20354;-86
2023/10/03 10:17:45;;;;;;;12.48;1.70;;;;;;;14.36;100.00;100716.19;5044265;28;20074;-86
2023/10/03 10:20:38;;;;;;;12.48;2.55;;;;;;;14.36;100.00;100726.81;5060279;28;20036;-86
2023/10/03 10:23:06;;;;;;;8.63;1.50;;;;;;;14.37;100.00;100723.16;5050557;28;20040;-85
2023/10/03 10:25:43;;;;;;;10.02;1.45;;;;;;;14.46;100.00;100729.34;5048808;28;20115;-86
2023/10/03 10:28:11;;;;;;;7.75;1.52;;;;;;;14.37;100.00;100729.31;5064524;28;20048;-86
2023/10/03 10:30:44;;;;;;;12.50;1.98;;;;;;;14.35;100.00;100741.13;5064504;28;20103;-86
2023/10/03 10:33:20;;;;;;;10.73;1.45;;;;;;;14.34;100.00;100740.28;5035760;28;20764;-86
2023/10/03 10:36:03;;;;;;;13.05;2.35;;;;;;;14.29;100.00;100745.25;5043140;28;20500;-86
2023/10/03 10:38:31;;;;;;;12.43;2.38;;;;;;;14.25;100.00;100741.25;5047415;28;20052;-86
2023/10/03 10:44:13;;;;;;;19.23;2.00;;;;;;;14.12;100.00;100742.53;5058180;28;20050;-86
2023/10/03 10:46:45;;;;;;;7.80;1.60;;;;;;;13.94;100.00;100755.91;5036992;28;20020;-85
2023/10/03 10:49:30;;;;;;;12.55;1.75;;;;;;;13.92;100.00;100760.53;5044429;28;20043;-86
2023/10/03 10:52:06;;;;;;;12.13;1.90;;;;;;;13.88;100.00;100764.50;5064515;28;20480;-85
2023/10/03 10:54:35;;;;;;;15.30;2.00;;;;;;;13.83;100.00;100767.66;5049700;28;20529;-86
2023/10/03 10:57:05;;;;;;;10.43;1.85;;;;;;;13.83;100.00;100766.81;5061470;28;20039;-86
2023/10/03 10:59:32;;;;;;;12.48;1.70;;;;;;;13.81;100.00;100772.28;5059027;28;20041;-86
2023/10/03 11:02:01;;;;;;;8.70;1.35;;;;;;;13.75;100.00;100762.28;5060312;28;20047;-86
2023/10/03 11:04:29;;;;;;;9.30;1.40;;;;;;;13.64;100.00;100755.41;5066511;28;20678;-87
2023/10/03 11:06:54;;;;;;;5.28;1.17;;;;;;;13.58;100.00;100764.84;5047719;28;20476;-86
2023/10/03 11:09:21;;;;;;;8.95;1.25;;;;;;;13.57;100.00;100767.66;5063366;28;20032;-85
2023/10/03 11:11:47;;;;;;;7.35;1.73;;;;;;;13.62;100.00;100766.19;5041972;28;20047;-87
2023/10/03 11:14:31;;;;;;;7.45;1.35;;;;;;;13.83;100.00;100777.44;5055571;28;20112;-86
2023/10/03 11:16:58;;;;;;;4.70;1.38;;;;;;;13.94;100.00;100771.84;5038759;28;20157;-86
2023/10/03 11:19:24;;;;;;;13.20;1.48;;;;;;;14.07;100.00;100779.41;5061999;28;20041;-86
2023/10/03 11:21:51;;;;;;;6.90;1.40;;;;;;;14.31;100.00;100784.97;5046769;28;20499;-87
2023/10/03 11:24:21;;;;;;;5.00;1.00;;;;;;;14.45;100.00;100795.00;5060904;28;20095;-86
2023/10/03 11:26:52;;;;;;;8.32;1.80;;;;;;;14.48;100.00;100797.31;5054991;28;20123;-86
2023/10/03 11:29:45;;;;;;;6.88;1.30;;;;;;;14.46;100.00;100796.63;5060926;28;20052;-87
2023/10/03 11:32:24;;;;;;;8.13;2.30;;;;;;;14.42;100.00;100805.94;5061059;28;20032;-86
2023/10/03 11:34:55;;;;;;;6.63;1.38;;;;;;;14.41;100.00;100801.63;5034805;28;20525;-86